Time;durP1;ratioP1;P1;durP2;ratioP2;P2;SDS_P1;SDS_P2;PMS_P1;PMS_P2;Temp;Humidity;BMP_temperature;BMP_pressure;BME280_temperature;BME280_humidity;BME280_pressure;Samples;Min_cycle;Max_cycle;Signal;HPM_P1;HPM_P2
2022/05/12 00:00:09;;;;;;;15.20;10.73;;;;;;;14.70;87.27;99612.16;5051599;28;20161;-85
2022/05/12 00:02:36;;;;;;;13.70;10.70;;;;;;;13.26;87.25;99367.44;5057885;28;20251;-86
2022/05/12 00:05:03;;;;;;;15.80;10.90;;;;;;;11.82;86.81;99107.81;5055054;28;20286;-84
2022/05/12 00:07:29;;;;;;;13.87;11.60;;;;;;;14.31;88.27;99580.31;5052402;28;20640;-85
2022/05/12 00:09:55;;;;;;;19.50;12.70;;;;;;;14.26;88.69;99575.88;5051653;28;20157;-85
2022/05/12 00:12:22;;;;;;;17.73;12.00;;;;;;;14.93;90.16;99706.31;5047725;28;20170;-85
2022/05/12 00:14:48;;;;;;;15.40;12.07;;;;;;;14.93;89.57;99722.50;5032282;28;20631;-85
2022/05/12 00:17:14;;;;;;;16.17;12.13;;;;;;;14.42;89.60;99617.22;5030562;28;20180;-85
2022/05/12 00:19:39;;;;;;;18.00;12.23;;;;;;;12.98;89.15;99368.19;5032098;28;20158;-85
2022/05/12 00:22:05;;;;;;;16.23;11.73;;;;;;;12.92;88.95;99380.69;5046491;28;20212;-85
2022/05/12 00:24:30;;;;;;;17.23;11.83;;;;;;;12.74;89.26;99343.63;5051323;28;20659;-84
2022/05/12 00:26:56;;;;;;;17.50;12.23;;;;;;;13.31;88.45;99444.72;5051798;28;20166;-84
2022/05/12 00:29:21;;;;;;;19.03;12.10;;;;;;;13.36;88.23;99433.03;5051625;28;20553;-85
2022/05/12 00:31:48;;;;;;;16.90;12.40;;;;;;;14.84;87.86;99670.34;5051986;28;20685;-84
2022/05/12 00:34:15;;;;;;;15.47;12.03;;;;;;;14.71;87.73;99643.63;5052188;28;20196;-84
2022/05/12 00:36:42;;;;;;;17.33;11.57;;;;;;;14.93;87.74;99713.97;5052354;28;20161;-85
2022/05/12 00:39:07;;;;;;;17.67;10.83;;;;;;;14.19;87.31;99583.38;5051700;28;20166;-85
2022/05/12 00:41:34;;;;;;;19.73;11.17;;;;;;;13.81;85.76;99519.28;5052629;28;20240;-84
2022/05/12 00:44:05;;;;;;;18.37;11.50;;;;;;;15.05;85.49;99722.00;5037484;28;20198;-86
2022/05/12 00:46:39;;;;;;;16.60;10.80;;;;;;;13.00;85.26;99375.84;5034860;28;20607;-84
2022/05/12 00:49:15;;;;;;;19.53;11.63;;;;;;;14.88;86.13;99718.94;5034695;28;20162;-84
2022/05/12 00:51:52;;;;;;;16.63;11.70;;;;;;;14.00;86.69;99562.34;5034885;28;20154;-83
2022/05/12 00:54:26;;;;;;;18.63;12.17;;;;;;;11.31;86.69;99105.97;5034575;28;20169;-85
2022/05/12 00:56:52;;;;;;;15.73;11.47;;;;;;;14.04;87.34;99590.47;5035093;28;20174;-84
2022/05/12 00:59:27;;;;;;;17.17;11.60;;;;;;;13.98;88.91;99618.28;5034774;28;20216;-84
2022/05/12 01:01:52;;;;;;;15.63;10.87;;;;;;;14.62;88.29;99719.75;5035302;28;20661;-85
2022/05/12 01:04:20;;;;;;;17.00;10.67;;;;;;;14.56;89.03;99712.78;5034687;28;20194;-84
2022/05/12 01:06:45;;;;;;;15.47;10.83;;;;;;;13.97;88.57;99633.50;5034752;28;20544;-84
2022/05/12 01:09:11;;;;;;;13.47;10.53;;;;;;;12.42;86.83;99350.13;5035295;28;20170;-85
2022/05/12 01:11:37;;;;;;;15.23;10.37;;;;;;;14.28;85.52;99635.41;5033783;28;20182;-84
2022/05/12 01:14:06;;;;;;;15.43;10.10;;;;;;;13.32;85.61;99488.81;5036188;28;20181;-85
2022/05/12 01:16:42;;;;;;;14.80;10.07;;;;;;;14.13;85.02;99621.34;5035148;28;20241;-84
2022/05/12 01:19:12;;;;;;;24.43;10.73;;;;;;;14.74;85.06;99726.16;5035349;28;20177;-84
2022/05/12 01:21:38;;;;;;;20.30;11.50;;;;;;;14.71;85.86;99731.13;5035316;28;20169;-84
2022/05/12 01:24:04;;;;;;;18.70;10.57;;;;;;;13.55;85.65;99534.56;5035173;28;20277;-84
2022/05/12 01:26:30;;;;;;;15.90;10.00;;;;;;;14.26;86.02;99663.34;5035196;28;20216;-85
2022/05/12 01:28:56;;;;;;;15.10;9.90;;;;;;;14.01;85.99;99627.69;5036163;28;20173;-85
2022/05/12 01:31:22;;;;;;;13.93;9.40;;;;;;;12.50;85.89;99376.63;5035665;28;20166;-84
2022/05/12 01:33:48;;;;;;;14.63;9.70;;;;;;;12.67;86.52;99428.03;5039915;28;20740;-83
2022/05/12 01:36:13;;;;;;;12.17;9.47;;;;;;;11.38;86.04;99219.41;5036393;28;20162;-84
2022/05/12 01:38:38;;;;;;;11.30;9.13;;;;;;;13.16;84.67;99509.44;5035845;28;20244;-84
2022/05/12 01:41:04;;;;;;;11.60;8.90;;;;;;;13.73;84.14;99607.25;5035145;28;20285;-84
2022/05/12 01:43:29;;;;;;;14.03;9.10;;;;;;;13.78;83.73;99610.81;5049682;28;20174;-84
2022/05/12 01:45:55;;;;;;;16.47;9.50;;;;;;;13.35;83.80;99555.88;5055417;28;20636;-84
2022/05/12 01:48:20;;;;;;;13.77;9.17;;;;;;;11.98;84.83;99345.09;5054601;28;20221;-83
2022/05/12 01:50:47;;;;;;;10.27;8.70;;;;;;;12.59;84.59;99431.97;5057087;28;20172;-83
2022/05/12 01:53:16;;;;;;;11.53;8.47;;;;;;;13.42;83.63;99568.03;5069165;28;20191;-84
2022/05/12 01:55:43;;;;;;;11.83;9.67;;;;;;;13.92;83.96;99663.03;5061786;28;20161;-85
2022/05/12 01:58:09;;;;;;;13.43;8.80;;;;;;;13.74;84.99;99664.94;5079068;28;20165;-85
2022/05/12 02:00:35;;;;;;;15.43;9.00;;;;;;;12.29;85.27;99417.38;5059419;28;20166;-85
2022/05/12 02:03:01;;;;;;;12.50;7.87;;;;;;;12.32;82.59;99392.09;5038761;28;20170;-84
2022/05/12 02:05:32;;;;;;;12.83;9.17;;;;;;;12.39;83.29;99409.25;5054645;28;20684;-84
2022/05/12 02:07:58;;;;;;;12.80;8.77;;;;;;;14.27;84.38;99741.50;5056410;28;20220;-84
2022/05/12 02:10:27;;;;;;;12.90;8.70;;;;;;;14.17;85.01;99747.09;5054718;28;20165;-85
2022/05/12 02:12:53;;;;;;;11.20;8.40;;;;;;;14.22;84.74;99753.19;5053484;28;20175;-84
2022/05/12 02:15:19;;;;;;;11.03;8.40;;;;;;;14.24;83.48;99782.13;5055556;28;20158;-83
2022/05/12 02:17:45;;;;;;;11.53;8.60;;;;;;;13.52;84.46;99643.81;5054372;28;20219;-84
2022/05/12 02:20:13;;;;;;;13.30;9.00;;;;;;;14.12;85.00;99756.22;5054970;28;20166;-83
2022/05/12 02:22:40;;;;;;;12.03;9.67;;;;;;;13.65;85.40;99670.59;5055106;28;20173;-83
2022/05/12 02:25:06;;;;;;;12.27;9.23;;;;;;;14.20;85.03;99759.94;5054377;28;20196;-84
2022/05/12 02:27:31;;;;;;;12.43;9.27;;;;;;;13.05;85.73;99582.72;5054909;28;20255;-84
2022/05/12 02:29:57;;;;;;;16.27;9.33;;;;;;;13.80;87.01;99749.13;5054187;28;20625;-84
2022/05/12 02:32:22;;;;;;;11.90;8.93;;;;;;;13.39;86.39;99687.44;5055495;28;20621;-83
2022/05/12 02:34:48;;;;;;;12.67;9.33;;;;;;;12.11;85.59;99423.44;5057229;28;20168;-84
2022/05/12 02:37:13;;;;;;;13.80;9.43;;;;;;;14.00;86.79;99768.53;5056017;28;20276;-83
2022/05/12 02:39:40;;;;;;;14.30;9.40;;;;;;;12.33;86.49;99475.03;5056228;28;20162;-84
2022/05/12 02:42:09;;;;;;;20.13;9.87;;;;;;;13.91;87.64;99770.75;5056563;28;20168;-84
2022/05/12 02:44:35;;;;;;;13.97;9.10;;;;;;;13.83;88.01;99773.00;5041282;28;20229;-84
2022/05/12 02:47:01;;;;;;;13.10;9.60;;;;;;;12.29;87.54;99531.59;5034187;28;20221;-83
2022/05/12 02:49:26;;;;;;;12.67;9.77;;;;;;;13.27;88.50;99686.09;5031703;28;20176;-83
2022/05/12 02:51:52;;;;;;;13.33;9.27;;;;;;;12.33;88.44;99510.56;5032736;28;20168;-83
2022/05/12 02:54:19;;;;;;;13.00;8.83;;;;;;;14.12;87.68;99781.69;5033185;28;20166;-83
2022/05/12 02:56:45;;;;;;;14.90;9.67;;;;;;;13.97;88.48;99782.03;5032942;28;20169;-84
2022/05/12 02:59:11;;;;;;;15.27;10.33;;;;;;;13.05;89.83;99622.53;5033364;28;20545;-84
2022/05/12 03:01:36;;;;;;;18.87;10.40;;;;;;;13.84;90.48;99791.69;5034375;28;20233;-83
2022/05/12 03:04:02;;;;;;;16.10;10.57;;;;;;;13.86;89.26;99788.41;5032787;28;20201;-85
2022/05/12 03:06:27;;;;;;;15.57;10.33;;;;;;;14.02;88.35;99794.91;5031574;28;20649;-85
2022/05/12 03:08:53;;;;;;;20.07;10.17;;;;;;;11.61;86.47;99375.78;5032713;28;20638;-85
2022/05/12 03:11:19;;;;;;;17.40;9.93;;;;;;;13.98;85.43;99798.16;5032475;28;20189;-84
2022/05/12 03:13:46;;;;;;;18.07;9.80;;;;;;;11.57;85.43;99404.34;5038828;28;20213;-83
2022/05/12 03:16:12;;;;;;;15.17;10.07;;;;;;;10.52;86.37;99300.41;5053083;28;20162;-84
2022/05/12 03:18:39;;;;;;;14.97;10.13;;;;;;;10.95;90.27;99443.22;5053626;28;20165;-84
2022/05/12 03:21:04;;;;;;;12.80;9.87;;;;;;;12.20;92.25;99657.25;5052967;28;20685;-84
2022/05/12 03:23:30;;;;;;;15.93;11.30;;;;;;;11.80;93.82;99631.91;5051577;28;20215;-84
2022/05/12 03:25:56;;;;;;;16.63;11.23;;;;;;;10.27;94.81;99384.53;5052038;28;20162;-84
2022/05/12 03:28:22;;;;;;;15.57;11.43;;;;;;;10.74;96.85;99477.72;5034704;28;20766;-84
2022/05/12 03:30:48;;;;;;;17.40;11.90;;;;;;;9.84;97.11;99325.19;5036137;28;20169;-85
2022/05/12 03:33:14;;;;;;;18.87;12.00;;;;;;;12.66;98.19;99794.63;5039840;28;20224;-85
2022/05/12 03:35:39;;;;;;;16.90;11.50;;;;;;;11.50;97.22;99564.66;5035614;28;20227;-85
2022/05/12 03:38:05;;;;;;;19.23;11.47;;;;;;;10.51;95.88;99380.53;5053774;28;20211;-85
2022/05/12 03:40:31;;;;;;;19.20;11.23;;;;;;;10.70;95.40;99387.25;5058897;28;20169;-85
2022/05/12 03:42:58;;;;;;;18.93;11.73;;;;;;;11.11;93.79;99427.84;5035630;28;20165;-84
2022/05/12 03:45:26;;;;;;;20.77;12.73;;;;;;;12.76;93.18;99679.84;5053287;28;20204;-85
2022/05/12 03:47:55;;;;;;;23.43;13.30;;;;;;;13.53;92.01;99803.28;5015153;28;20746;-84
2022/05/12 03:50:22;;;;;;;22.20;12.67;;;;;;;13.75;90.56;99799.84;5053043;28;20277;-85
2022/05/12 03:52:49;;;;;;;22.70;13.10;;;;;;;13.42;91.07;99819.78;5055230;28;20185;-85
2022/05/12 03:55:16;;;;;;;22.57;12.37;;;;;;;13.29;92.52;99821.81;5037305;28;20177;-84
2022/05/12 03:57:44;;;;;;;19.93;11.93;;;;;;;12.75;95.75;99836.50;5046275;28;20184;-84
2022/05/12 04:00:12;;;;;;;18.40;12.30;;;;;;;12.89;96.36;99815.06;5030454;28;20268;-86
2022/05/12 04:02:38;;;;;;;17.23;11.87;;;;;;;9.88;96.33;99332.13;5031065;28;20178;-86
2022/05/12 04:05:05;;;;;;;20.77;11.60;;;;;;;12.80;94.17;99801.13;5041614;28;20205;-85
2022/05/12 04:07:31;;;;;;;17.17;11.30;;;;;;;11.94;95.05;99640.97;5047339;28;20670;-86
2022/05/12 04:10:00;;;;;;;26.43;14.00;;;;;;;11.27;93.04;99478.34;5032275;28;20186;-85
2022/05/12 04:12:25;;;;;;;20.67;12.07;;;;;;;12.57;93.81;99731.59;5047243;28;20182;-86
2022/05/12 04:14:51;;;;;;;29.03;16.50;;;;;;;12.36;92.49;99645.25;5055546;28;20240;-85
2022/05/12 04:17:16;;;;;;;32.27;16.83;;;;;;;12.09;90.28;99569.66;5047959;28;20182;-87
2022/05/12 04:19:44;;;;;;;31.33;15.83;;;;;;;13.76;88.06;99841.44;5054943;28;20197;-85
2022/05/12 04:22:09;;;;;;;23.93;14.23;;;;;;;13.27;86.51;99750.53;5036570;28;20189;-85
2022/05/12 04:24:35;;;;;;;21.47;13.23;;;;;;;11.77;84.60;99479.59;5035387;28;20289;-86
2022/05/12 04:27:01;;;;;;;22.50;13.00;;;;;;;13.13;83.62;99705.91;5012728;28;20211;-84
2022/05/12 04:29:27;;;;;;;19.90;12.73;;;;;;;13.83;83.41;99782.31;5003102;28;20735;-85
2022/05/12 04:31:52;;;;;;;24.23;11.80;;;;;;;14.39;82.52;99848.94;4994728;28;20218;-84
2022/05/12 04:37:02;;;;;;;23.23;10.27;;;;;;;14.66;81.01;99839.72;4993067;28;20209;-84
2022/05/12 04:39:30;;;;;;;18.23;10.00;;;;;;;13.89;79.55;99665.47;4995026;28;20224;-85
2022/05/12 04:41:55;;;;;;;15.00;9.57;;;;;;;14.96;78.84;99833.91;5000536;28;20227;-84
2022/05/12 04:44:21;;;;;;;20.03;9.97;;;;;;;15.23;77.82;99853.50;4992865;28;20965;-85
2022/05/12 04:46:47;;;;;;;16.27;9.73;;;;;;;14.66;81.18;99854.13;4983683;28;20714;-86
2022/05/12 04:49:15;;;;;;;14.97;9.03;;;;;;;14.02;81.95;99764.34;5008206;28;20187;-85
2022/05/12 04:51:41;;;;;;;14.33;9.80;;;;;;;14.20;82.06;99776.06;5012116;28;20186;-85
2022/05/12 04:54:09;;;;;;;15.70;10.07;;;;;;;14.76;82.07;99858.72;5012631;28;20218;-86
2022/05/12 04:56:38;;;;;;;14.50;10.40;;;;;;;14.77;82.55;99853.69;4995284;28;20183;-86
2022/05/12 04:59:05;;;;;;;26.70;17.10;;;;;;;14.85;81.70;99858.16;5039426;28;20271;-85
2022/05/12 05:01:31;;;;;;;19.03;11.30;;;;;;;14.66;79.94;99753.06;5032725;28;20188;-86
2022/05/12 05:04:00;;;;;;;15.37;10.07;;;;;;;12.80;77.79;99382.78;5202392;23;20321;-85
2022/05/12 05:06:28;;;;;;;20.73;10.00;;;;;;;14.27;75.70;99608.19;5030421;28;20190;-85
2022/05/12 05:08:54;;;;;;;14.93;10.47;;;;;;;16.16;74.47;99852.16;5030847;28;20309;-85
2022/05/12 05:11:19;;;;;;;12.30;9.30;;;;;;;15.25;74.06;99708.16;5031590;28;20185;-85
2022/05/12 05:13:45;;;;;;;12.80;8.80;;;;;;;15.17;72.32;99661.16;5033746;28;20692;-85
2022/05/12 05:16:10;;;;;;;16.20;9.77;;;;;;;13.60;72.74;99379.53;5034656;28;20178;-85
2022/05/12 05:18:37;;;;;;;17.07;9.73;;;;;;;16.04;71.58;99738.56;5020186;28;20261;-86
2022/05/12 05:21:03;;;;;;;17.80;10.03;;;;;;;15.94;71.09;99683.81;5021962;28;20665;-86
2022/05/12 05:23:28;;;;;;;13.40;9.33;;;;;;;15.88;72.00;99714.28;5033255;28;20186;-85
2022/05/12 05:25:54;;;;;;;12.53;9.07;;;;;;;16.24;71.17;99752.72;5034533;28;20206;-84
2022/05/12 05:28:20;;;;;;;18.47;9.80;;;;;;;15.51;70.54;99630.72;5035144;28;20174;-85
2022/05/12 05:30:46;;;;;;;18.87;9.20;;;;;;;16.96;69.74;99858.63;5043248;28;20190;-88
2022/05/12 05:33:11;;;;;;;14.37;9.40;;;;;;;15.48;68.90;99605.13;5043475;28;20194;-85
2022/05/12 05:35:37;;;;;;;14.47;8.73;;;;;;;17.19;67.79;99856.63;5032273;28;20174;-85
2022/05/12 05:38:03;;;;;;;16.70;9.77;;;;;;;16.12;67.56;99634.91;5034389;28;20205;-85
2022/05/12 05:40:31;;;;;;;12.73;8.70;;;;;;;16.19;67.18;99645.31;5032334;28;20198;-85
2022/05/12 05:42:58;;;;;;;14.40;8.80;;;;;;;17.77;66.48;99864.88;5032871;28;20186;-85
2022/05/12 05:45:25;;;;;;;15.47;9.13;;;;;;;15.19;65.64;99453.81;5033672;28;20206;-85
2022/05/12 05:47:54;;;;;;;18.43;10.10;;;;;;;17.24;68.28;99863.59;5025379;28;20244;-85
2022/05/12 05:50:31;;;;;;;14.57;9.90;;;;;;;17.13;69.00;99859.03;5036598;28;20264;-86
2022/05/12 05:55:42;;;;;;;14.70;9.60;;;;;;;17.48;67.70;99838.56;5014848;28;20874;-86
2022/05/12 05:58:09;;;;;;;15.70;9.47;;;;;;;16.09;67.04;99609.28;5013492;28;20197;-85
2022/05/12 06:00:36;;;;;;;22.20;10.17;;;;;;;18.07;66.51;99859.56;5028729;28;20174;-84
2022/05/12 06:03:02;;;;;;;15.27;9.70;;;;;;;16.81;64.83;99605.06;5032114;28;20233;-85
2022/05/12 06:05:28;;;;;;;14.40;9.23;;;;;;;17.75;63.15;99704.31;5033925;28;20205;-85
2022/05/12 06:07:54;;;;;;;12.37;9.37;;;;;;;18.42;62.94;99807.28;5032892;28;20188;-84
2022/05/12 06:10:20;;;;;;;13.83;9.30;;;;;;;19.08;62.49;99861.53;5032926;28;20217;-85
2022/05/12 06:12:48;;;;;;;13.10;9.10;;;;;;;17.95;63.65;99765.38;5015574;28;20182;-85
2022/05/12 06:15:15;;;;;;;19.27;8.93;;;;;;;18.63;62.58;99812.84;5032632;28;20189;-84
2022/05/12 06:17:41;;;;;;;14.30;8.83;;;;;;;17.40;63.27;99617.41;5031909;28;20236;-85
2022/05/12 06:20:09;;;;;;;12.30;8.90;;;;;;;18.65;62.34;99766.72;5030219;28;20237;-85
2022/05/12 06:22:35;;;;;;;13.93;9.03;;;;;;;19.65;60.83;99861.63;5016600;28;20200;-84
2022/05/12 06:25:05;;;;;;;14.20;8.70;;;;;;;18.85;60.58;99729.41;5052493;28;20213;-84
2022/05/12 06:27:32;;;;;;;11.73;8.50;;;;;;;18.63;59.07;99646.13;5054505;28;20645;-86
2022/05/12 06:29:57;;;;;;;14.97;8.70;;;;;;;19.97;58.87;99834.66;5053970;28;20280;-85
2022/05/12 06:32:23;;;;;;;13.87;8.57;;;;;;;20.11;57.95;99806.53;5063740;28;20207;-85
2022/05/12 06:34:48;;;;;;;13.40;8.90;;;;;;;19.87;57.02;99735.16;5075541;28;20165;-86
2022/05/12 06:37:13;;;;;;;13.57;8.80;;;;;;;18.13;56.00;99442.84;5068673;28;20585;-86
2022/05/12 06:39:39;;;;;;;11.03;7.97;;;;;;;20.47;54.66;99857.56;5052245;28;20212;-86
2022/05/12 06:42:05;;;;;;;11.87;7.80;;;;;;;20.24;53.66;99767.34;5051086;28;20565;-86
2022/05/12 06:44:31;;;;;;;12.67;8.13;;;;;;;19.70;53.31;99623.63;5036528;28;20209;-86
2022/05/12 06:46:57;;;;;;;15.10;7.20;;;;;;;21.53;51.49;99872.38;5023930;28;20260;-86
2022/05/12 06:49:22;;;;;;;8.40;6.37;;;;;;;19.29;50.27;99496.47;5032426;28;20239;-86
2022/05/12 06:51:48;;;;;;;10.00;6.30;;;;;;;21.44;49.71;99817.31;5030206;28;20181;-86
2022/05/12 06:54:14;;;;;;;8.60;5.87;;;;;;;21.33;49.09;99817.25;5033586;28;20181;-84
2022/05/12 06:56:41;;;;;;;8.17;6.63;;;;;;;21.78;49.78;99842.47;5033150;28;20166;-85
2022/05/12 06:59:07;;;;;;;10.33;6.13;;;;;;;20.96;48.08;99632.41;5031309;28;20178;-85
2022/05/12 07:01:33;;;;;;;10.77;6.40;;;;;;;20.26;47.92;99489.66;5030569;28;20190;-85
2022/05/12 07:04:00;;;;;;;10.37;6.30;;;;;;;19.58;48.40;99477.09;5031154;28;20225;-86
2022/05/12 07:06:27;;;;;;;11.73;6.30;;;;;;;20.82;47.65;99642.63;5031877;28;20193;-83
2022/05/12 07:08:52;;;;;;;10.10;6.13;;;;;;;22.47;47.50;99865.13;5031911;28;20239;-85
2022/05/12 07:11:17;;;;;;;6.87;5.67;;;;;;;21.57;46.51;99628.44;5032247;28;20178;-85
2022/05/12 07:13:43;;;;;;;10.80;6.20;;;;;;;22.43;46.05;99742.13;5033960;28;20729;-84
2022/05/12 07:16:09;;;;;;;7.30;5.60;;;;;;;22.72;46.04;99796.41;5033581;28;20189;-84
2022/05/12 07:18:36;;;;;;;11.87;6.83;;;;;;;21.86;46.62;99729.06;5032017;28;20261;-84
2022/05/12 07:26:40;;;;;;;7.43;5.60;;;;;;;22.34;46.50;99775.66;5032272;28;20577;-85
2022/05/12 07:29:17;;;;;;;10.17;6.00;;;;;;;22.19;46.76;99770.47;5030704;28;20213;-85
2022/05/12 07:31:43;;;;;;;7.83;5.77;;;;;;;22.69;46.24;99854.03;5033898;28;20193;-85
2022/05/12 07:34:10;;;;;;;8.60;5.60;;;;;;;23.32;44.95;99831.72;5046258;28;20182;-84
2022/05/12 07:36:41;;;;;;;10.33;6.17;;;;;;;23.18;44.24;99755.94;5032093;28;20842;-85
2022/05/12 07:39:07;;;;;;;10.83;6.30;;;;;;;22.98;43.97;99724.09;5030337;28;20178;-85
2022/05/12 07:41:33;;;;;;;9.67;5.60;;;;;;;22.82;44.54;99777.50;5030514;28;20186;-86
2022/05/12 07:43:59;;;;;;;12.17;5.70;;;;;;;23.71;43.87;99854.09;5032950;28;20206;-84
2022/05/12 07:46:27;;;;;;;10.37;6.00;;;;;;;22.40;43.31;99568.41;5011318;28;20201;-84
2022/05/12 07:48:54;;;;;;;10.37;5.67;;;;;;;24.17;42.55;99800.53;4999906;28;20230;-85
2022/05/12 07:51:20;;;;;;;10.23;5.47;;;;;;;22.41;41.64;99478.09;5015403;28;20185;-85
2022/05/12 07:53:47;;;;;;;5.90;5.30;;;;;;;23.18;42.13;99692.22;5042800;28;20186;-85
2022/05/12 07:56:17;;;;;;;6.43;5.27;;;;;;;23.81;41.74;99846.34;5034622;28;20560;-85
2022/05/12 07:58:43;;;;;;;6.40;5.07;;;;;;;23.19;41.37;99765.41;5033982;28;20237;-86
2022/05/12 08:01:10;;;;;;;7.53;4.57;;;;;;;22.96;40.84;99640.63;5033864;28;20591;-85
2022/05/12 08:03:35;;;;;;;7.67;5.20;;;;;;;24.12;39.50;99737.59;5033928;28;20765;-86
2022/05/12 08:06:02;;;;;;;9.80;5.80;;;;;;;25.06;39.41;99857.84;5033979;28;20213;-84
2022/05/12 08:08:28;;;;;;;7.07;4.97;;;;;;;24.67;38.61;99795.91;5034291;28;20177;-85
2022/05/12 08:10:54;;;;;;;10.63;5.67;;;;;;;24.77;38.96;99796.72;5034871;28;20689;-85
2022/05/12 08:13:21;;;;;;;7.67;5.80;;;;;;;24.39;40.42;99857.34;5033959;28;20174;-85
2022/05/12 08:15:49;;;;;;;9.00;5.20;;;;;;;24.62;40.43;99849.47;5033646;28;20185;-86
2022/05/12 08:18:21;;;;;;;8.10;5.23;;;;;;;24.72;39.32;99830.44;5032537;28;20178;-85
2022/05/12 08:20:47;;;;;;;9.47;5.30;;;;;;;25.00;38.85;99779.28;5033782;28;20181;-85
2022/05/12 08:23:13;;;;;;;9.27;5.50;;;;;;;25.85;37.66;99846.75;5033392;28;20205;-85
2022/05/12 08:25:40;;;;;;;10.53;6.00;;;;;;;25.79;37.82;99852.88;5033886;28;20686;-85
2022/05/12 08:28:05;;;;;;;16.00;5.80;;;;;;;24.31;38.07;99509.72;5032702;28;20182;-86
2022/05/12 08:30:31;;;;;;;9.03;5.33;;;;;;;25.69;37.35;99664.50;5033786;28;20549;-87
2022/05/12 08:32:58;;;;;;;9.20;5.70;;;;;;;26.31;37.11;99811.66;5033781;28;20182;-87
2022/05/12 08:35:25;;;;;;;7.30;6.00;;;;;;;26.50;37.59;99855.53;5032794;28;20178;-86
2022/05/12 08:37:50;;;;;;;8.32;5.40;;;;;;;25.59;37.28;99682.81;5033397;28;20736;-86
2022/05/12 08:40:37;;;;;;;13.40;5.70;;;;;;;27.05;37.13;99851.28;5033420;28;20184;-86
2022/05/12 08:43:16;;;;;;;9.93;5.82;;;;;;;26.67;37.46;99856.16;5033031;28;20991;-85
2022/05/12 08:45:43;;;;;;;7.93;5.93;;;;;;;26.43;37.56;99852.16;5033191;28;20209;-87
2022/05/12 08:48:11;;;;;;;9.90;5.90;;;;;;;26.76;37.52;99846.50;5020233;28;20229;-86
2022/05/12 08:50:39;;;;;;;8.93;5.35;;;;;;;26.94;37.18;99848.88;5034847;28;20185;-86
2022/05/12 08:53:18;;;;;;;8.82;5.43;;;;;;;25.66;37.00;99645.53;5040422;28;20206;-86
2022/05/12 08:55:56;;;;;;;6.03;4.97;;;;;;;25.56;38.39;99815.09;5054490;28;20183;-87
2022/05/12 08:58:30;;;;;;;6.63;5.50;;;;;;;26.20;37.85;99842.09;5044435;28;20186;-86
2022/05/12 09:01:07;;;;;;;9.20;5.43;;;;;;;25.52;36.88;99572.28;5033497;28;20174;-87
2022/05/12 09:03:48;;;;;;;6.95;5.00;;;;;;;27.53;36.09;99841.81;5021428;28;20261;-86
2022/05/12 09:06:20;;;;;;;19.42;6.10;;;;;;;27.82;35.01;99847.38;5033465;28;20188;-85
2022/05/12 09:09:03;;;;;;;12.13;5.18;;;;;;;27.25;35.65;99851.81;5031652;28;20188;-86
2022/05/12 09:11:28;;;;;;;6.90;4.70;;;;;;;27.13;35.86;99841.63;5032662;28;20647;-86
2022/05/12 09:13:55;;;;;;;5.18;4.60;;;;;;;27.27;34.90;99846.59;5032670;28;20188;-86
2022/05/12 09:16:35;;;;;;;8.55;4.63;;;;;;;27.08;34.24;99760.25;5030278;28;20330;-86
2022/05/12 09:19:01;;;;;;;7.97;5.15;;;;;;;27.61;34.19;99841.72;5037319;28;20340;-86
2022/05/12 09:21:29;;;;;;;6.30;4.50;;;;;;;26.77;33.93;99757.28;5032220;28;20180;-85
2022/05/12 09:23:58;;;;;;;6.10;4.45;;;;;;;27.92;33.42;99835.03;5034436;28;20185;-87
2022/05/12 09:26:32;;;;;;;6.97;4.80;;;;;;;25.41;32.74;99371.91;5032257;28;20211;-89
2022/05/12 09:29:18;;;;;;;6.10;4.50;;;;;;;27.67;33.48;99834.63;5035501;28;20183;-86
2022/05/12 09:31:50;;;;;;;6.18;4.70;;;;;;;27.41;33.64;99824.69;5037671;28;20199;-87
2022/05/12 09:34:25;;;;;;;8.77;4.47;;;;;;;24.98;33.45;99385.53;5041705;28;20281;-88
2022/05/12 09:36:51;;;;;;;7.63;4.60;;;;;;;24.69;32.67;99322.03;5024219;28;20280;-88
2022/05/12 09:39:39;;;;;;;4.55;4.15;;;;;;;27.55;31.88;99832.28;5016352;28;20189;-89
2022/05/12 09:42:15;;;;;;;8.10;3.83;;;;;;;26.35;31.35;99705.97;5017072;28;20186;-89
2022/05/12 09:44:53;;;;;;;4.43;3.90;;;;;;;27.19;31.72;99822.47;5014759;28;20273;-88
2022/05/12 09:47:18;;;;;;;4.90;4.03;;;;;;;25.57;31.51;99570.47;5031224;28;20180;-88
2022/05/12 09:49:46;;;;;;;5.65;4.00;;;;;;;26.72;31.09;99720.13;5023455;28;20238;-89
2022/05/12 09:52:31;;;;;;;4.95;3.92;;;;;;;25.98;31.50;99556.88;5033186;28;20188;-89
2022/05/12 09:55:09;;;;;;;4.97;4.30;;;;;;;27.76;31.32;99812.78;5029604;28;20203;-89
2022/05/12 09:57:35;;;;;;;5.45;4.43;;;;;;;26.38;32.32;99595.16;5034680;28;20837;-89
2022/05/12 10:00:03;;;;;;;10.07;5.70;;;;;;;25.67;32.99;99442.38;5041080;28;20224;-89
2022/05/12 10:08:24;;;;;;;7.65;4.93;;;;;;;28.35;31.80;99803.78;5042416;28;20198;-90
2022/05/12 10:10:58;;;;;;;8.15;4.80;;;;;;;26.79;32.56;99601.38;5039472;28;20197;-89
2022/05/12 10:13:30;;;;;;;7.53;4.40;;;;;;;28.12;32.16;99791.25;5045551;28;20160;-89
2022/05/12 10:15:58;;;;;;;6.82;4.70;;;;;;;27.32;31.65;99655.81;5040415;28;20211;-89
2022/05/12 10:18:51;;;;;;;12.02;4.93;;;;;;;27.96;32.04;99787.22;5041034;28;20197;-89
2022/05/12 10:21:39;;;;;;;7.50;4.70;;;;;;;28.17;32.07;99785.94;5029550;28;20187;-90
2022/05/12 10:24:27;;;;;;;8.43;4.70;;;;;;;28.34;32.33;99789.03;5035765;28;20203;-89
2022/05/12 10:27:09;;;;;;;9.80;4.68;;;;;;;28.58;31.96;99783.28;5028702;28;20284;-89
2022/05/12 10:29:36;;;;;;;9.88;4.95;;;;;;;28.74;31.92;99786.41;5030272;28;20184;-89
2022/05/12 10:32:22;;;;;;;6.40;4.85;;;;;;;27.74;31.50;99609.84;5042983;28;20191;-88
2022/05/12 10:35:08;;;;;;;13.18;8.90;;;;;;;28.27;29.76;99779.63;5039540;28;20185;-89
2022/05/12 10:37:58;;;;;;;11.27;6.97;;;;;;;28.64;30.14;99776.22;5053062;28;20199;-88
2022/05/12 10:40:34;;;;;;;5.70;4.72;;;;;;;28.64;29.97;99771.00;5029761;28;20746;-86
2022/05/12 10:43:37;;;;;;;5.10;4.28;;;;;;;28.23;30.18;99760.63;5049513;28;20189;-88
2022/05/12 10:46:18;;;;;;;6.13;4.47;;;;;;;27.43;31.37;99679.03;5042715;28;20216;-89
2022/05/12 10:49:18;;;;;;;7.05;4.10;;;;;;;27.22;29.19;99604.00;5036018;28;20244;-89
2022/05/12 10:52:07;;;;;;;6.45;3.80;;;;;;;28.27;28.71;99757.06;5023412;28;20231;-88
2022/05/12 10:54:55;;;;;;;5.72;5.18;;;;;;;28.42;30.67;99754.13;5000532;28;20200;-90
2022/05/12 10:57:54;;;;;;;6.28;4.05;;;;;;;28.14;30.51;99753.03;4994473;28;20230;-89
2022/05/12 11:00:35;;;;;;;10.07;5.68;;;;;;;27.86;28.96;99767.47;5019077;28;20225;-90
2022/05/12 11:03:34;;;;;;;6.90;4.70;;;;;;;27.90;26.78;99754.38;5028165;28;20688;-89
2022/05/12 11:06:05;;;;;;;7.40;4.45;;;;;;;25.95;28.39;99346.75;5033393;28;20396;-90
2022/05/12 11:08:58;;;;;;;9.07;5.63;;;;;;;26.54;29.42;99392.31;5024507;28;20212;-92
2022/05/12 11:11:34;;;;;;;7.90;4.05;;;;;;;25.10;29.58;99183.25;5042965;28;20187;-91
2022/05/12 11:16:55;;;;;;;8.10;4.65;;;;;;;26.98;27.07;99547.28;5153561;22;20236;-87
2022/05/12 11:19:24;;;;;;;10.68;3.85;;;;;;;25.32;26.34;99248.50;5016169;28;20176;-88
2022/05/12 11:22:12;;;;;;;4.20;3.30;;;;;;;28.68;25.63;99738.75;5013916;28;20266;-88
2022/05/12 11:24:54;;;;;;;4.05;2.95;;;;;;;28.17;26.34;99549.84;5024957;28;20215;-90
2022/05/12 11:27:45;;;;;;;8.70;4.60;;;;;;;30.15;25.41;99731.28;5032703;28;20193;-88
2022/05/12 11:30:47;;;;;;;4.97;3.17;;;;;;;29.98;23.66;99582.09;5036884;28;20191;-91
2022/05/12 11:33:33;;;;;;;4.63;3.10;;;;;;;31.12;23.51;99725.56;4965017;28;20218;-89
2022/05/12 11:36:05;;;;;;;13.15;3.85;;;;;;;29.18;23.99;99481.03;4980468;28;20203;-90
2022/05/12 11:38:39;;;;;;;3.63;3.00;;;;;;;31.00;23.34;99739.91;4976703;28;20247;-90
2022/05/12 11:41:14;;;;;;;3.53;2.60;;;;;;;31.54;22.12;99730.16;4962689;28;20303;-91
2022/05/12 11:46:55;;;;;;;6.35;3.38;;;;;;;32.80;22.09;99706.88;4977976;28;20206;-87
2022/05/12 11:49:20;;;;;;;4.95;3.15;;;;;;;32.62;22.27;99702.41;4945134;28;20245;-89
2022/05/12 11:52:16;;;;;;;4.68;3.20;;;;;;;33.09;22.02;99703.94;4948974;28;20272;-90
2022/05/12 11:55:20;;;;;;;4.78;3.15;;;;;;;33.00;22.26;99701.66;4968748;28;20206;-90
2022/05/12 11:57:58;;;;;;;4.05;2.97;;;;;;;33.20;21.26;99617.69;4930685;29;20287;-89